createdAt,value
2018-03-01T00:01:35.998Z,100211.48
2018-03-01T00:04:03.556Z,100217.06
2018-03-01T00:06:31.112Z,100221.44
2018-03-01T00:08:59.683Z,100222.72
2018-03-01T00:11:27.239Z,100219.24
2018-03-01T00:13:54.837Z,100225.16
2018-03-01T00:16:22.428Z,100209.06
2018-03-01T00:18:49.992Z,100214.16
2018-03-01T00:21:17.866Z,100216.73
2018-03-01T00:23:45.469Z,100213.73
2018-03-01T00:26:13.307Z,100219.88
2018-03-01T00:28:41.483Z,100218.42
2018-03-01T00:31:09.068Z,100221.83
2018-03-01T00:33:37.406Z,100229.42
2018-03-01T00:36:05.558Z,100224.02
2018-03-01T00:38:33.143Z,100222.63
2018-03-01T00:41:00.754Z,100227.53
2018-03-01T00:43:28.312Z,100228.75
2018-03-01T00:45:55.859Z,100231.34
2018-03-01T00:48:23.465Z,100226.17
2018-03-01T00:50:51.028Z,100235.16
2018-03-01T00:53:18.628Z,100241.20
2018-03-01T00:55:46.179Z,100230.63
2018-03-01T00:58:13.780Z,100229.28
2018-03-01T01:00:41.757Z,100228.30
2018-03-01T01:03:09.347Z,100215.17
2018-03-01T01:05:36.946Z,100222.17
2018-03-01T01:08:04.513Z,100227.44
2018-03-01T01:10:32.084Z,100241.58
2018-03-01T01:12:59.678Z,100245.57
2018-03-01T01:15:27.244Z,100241.17
2018-03-01T01:17:54.845Z,100251.82
2018-03-01T01:20:23.922Z,100238.61
2018-03-01T01:22:51.544Z,100236.07
2018-03-01T01:25:19.134Z,100240.34
2018-03-01T01:27:46.687Z,100248.53
2018-03-01T01:30:14.280Z,100262.65
2018-03-01T01:32:41.878Z,100254.99
2018-03-01T01:35:09.446Z,100255.80
2018-03-01T01:37:37.927Z,100255.73
2018-03-01T01:40:05.523Z,100248.92
2018-03-01T01:42:33.123Z,100251.59
2018-03-01T01:45:00.694Z,100256.48
2018-03-01T01:47:28.256Z,100247.55
2018-03-01T01:49:55.869Z,100249.09
2018-03-01T01:52:23.433Z,100250.13
2018-03-01T01:54:51.030Z,100255.84
2018-03-01T01:57:18.612Z,100255.81
2018-03-01T01:59:46.159Z,100247.16
2018-03-01T02:02:13.769Z,100236.06
2018-03-01T02:04:42.031Z,100246.40
2018-03-01T02:07:09.625Z,100249.20
2018-03-01T02:09:38.152Z,100233.22
2018-03-01T02:12:05.708Z,100240.88
2018-03-01T02:14:33.315Z,100239.50
2018-03-01T02:17:00.924Z,100241.22
2018-03-01T02:19:28.537Z,100239.98
2018-03-01T02:21:56.154Z,100246.59
2018-03-01T02:24:23.957Z,100247.16
2018-03-01T02:26:51.565Z,100248.91
2018-03-01T02:29:19.115Z,100250.91
2018-03-01T02:31:46.715Z,100251.95
2018-03-01T02:34:14.324Z,100261.20
2018-03-01T02:36:41.931Z,100256.61
2018-03-01T02:39:09.636Z,100254.66
2018-03-01T02:41:37.249Z,100244.70
2018-03-01T02:44:05.785Z,100240.70
2018-03-01T02:46:33.331Z,100231.47
2018-03-01T02:49:00.920Z,100236.16
2018-03-01T02:51:28.535Z,100238.14
2018-03-01T02:53:56.127Z,100242.09
2018-03-01T02:56:23.740Z,100244.27
2018-03-01T02:58:51.372Z,100244.23
2018-03-01T03:01:18.967Z,100245.03
2018-03-01T03:03:46.522Z,100245.00
2018-03-01T03:06:14.448Z,100246.80
2018-03-01T03:08:42.049Z,100242.73
2018-03-01T03:11:09.613Z,100247.05
2018-03-01T03:13:37.211Z,100250.19
2018-03-01T03:16:04.763Z,100237.23
2018-03-01T03:18:32.370Z,100234.86
2018-03-01T03:21:00.418Z,100232.09
2018-03-01T03:23:27.980Z,100240.14
2018-03-01T03:25:55.522Z,100242.37
2018-03-01T03:28:23.143Z,100244.09
2018-03-01T03:30:51.165Z,100243.05
2018-03-01T03:33:18.741Z,100243.23
2018-03-01T03:35:47.002Z,100236.02
2018-03-01T03:38:14.597Z,100238.22
2018-03-01T03:40:42.833Z,100238.41
2018-03-01T03:43:10.387Z,100240.61
2018-03-01T03:45:38.363Z,100242.00
2018-03-01T03:48:05.972Z,100242.11
2018-03-01T03:50:33.589Z,100239.39
2018-03-01T03:53:01.139Z,100234.20
2018-03-01T03:55:28.711Z,100232.62
2018-03-01T03:57:56.322Z,100235.22
2018-03-01T04:00:23.875Z,100237.50
2018-03-01T04:02:51.440Z,100250.42
2018-03-01T04:05:19.039Z,100253.50
2018-03-01T04:07:47.314Z,100258.64
2018-03-01T04:10:14.911Z,100251.42
2018-03-01T04:12:42.529Z,100256.14
2018-03-01T04:15:10.473Z,100258.02
2018-03-01T04:17:38.041Z,100256.73
2018-03-01T04:20:06.123Z,100254.59
2018-03-01T04:22:33.677Z,100264.51
2018-03-01T04:25:01.282Z,100255.59
2018-03-01T04:27:28.843Z,100254.57
2018-03-01T04:29:56.440Z,100254.30
2018-03-01T04:32:24.001Z,100262.41
2018-03-01T04:34:51.625Z,100258.33
2018-03-01T04:37:19.293Z,100256.47
2018-03-01T04:39:46.858Z,100251.48
2018-03-01T04:42:14.455Z,100249.86
2018-03-01T04:44:42.047Z,100261.13
2018-03-01T04:47:10.001Z,100255.92
2018-03-01T04:49:37.591Z,100256.17
2018-03-01T04:52:05.164Z,100254.50
2018-03-01T04:54:32.977Z,100259.69
2018-03-01T04:57:00.530Z,100254.26
2018-03-01T04:59:28.132Z,100270.66
2018-03-01T05:01:55.723Z,100269.23
2018-03-01T05:04:23.285Z,100273.98
2018-03-01T05:06:51.180Z,100264.64
2018-03-01T05:09:19.223Z,100268.48
2018-03-01T05:11:46.819Z,100260.47
2018-03-01T05:14:15.250Z,100252.19
2018-03-01T05:16:43.464Z,100248.10
2018-03-01T05:19:11.052Z,100251.13
2018-03-01T05:21:38.640Z,100254.64
2018-03-01T05:24:06.196Z,100245.59
2018-03-01T05:26:33.788Z,100244.11
2018-03-01T05:29:01.340Z,100243.71
2018-03-01T05:31:28.945Z,100241.91
2018-03-01T05:33:56.513Z,100237.42
2018-03-01T05:36:24.133Z,100227.55
2018-03-01T05:38:52.109Z,100239.49
2018-03-01T05:41:19.660Z,100244.30
2018-03-01T05:43:47.256Z,100248.02
2018-03-01T05:46:14.903Z,100248.55
2018-03-01T05:48:42.532Z,100256.22
2018-03-01T05:51:10.904Z,100255.58
2018-03-01T05:53:38.491Z,100251.99
2018-03-01T05:56:06.043Z,100248.13
2018-03-01T05:58:33.648Z,100257.13
2018-03-01T06:01:01.219Z,100255.08
2018-03-01T06:03:28.821Z,100256.63
2018-03-01T06:05:56.385Z,100261.56
2018-03-01T06:08:24.598Z,100265.94
2018-03-01T06:10:52.169Z,100265.62
2018-03-01T06:13:19.729Z,100272.05
2018-03-01T06:15:47.337Z,100271.37
2018-03-01T06:18:14.891Z,100271.59
2018-03-01T06:20:42.830Z,100270.89
2018-03-01T06:23:10.412Z,100268.53
2018-03-01T06:25:38.381Z,100268.55
2018-03-01T06:28:05.996Z,100262.67
2018-03-01T06:30:33.795Z,100268.95
2018-03-01T06:33:01.682Z,100268.02
2018-03-01T06:35:30.364Z,100267.87
2018-03-01T06:37:59.427Z,100272.88
2018-03-01T06:40:27.029Z,100268.91
2018-03-01T06:42:55.027Z,100265.38
2018-03-01T06:45:24.014Z,100258.55
2018-03-01T06:47:52.566Z,100255.45
2018-03-01T06:50:20.324Z,100245.16
2018-03-01T06:52:48.093Z,100252.38
2018-03-01T06:55:15.653Z,100250.47
2018-03-01T06:57:43.688Z,100243.86
2018-03-01T07:00:11.559Z,100243.27
2018-03-01T07:02:39.460Z,100238.83
2018-03-01T07:05:07.015Z,100240.59
2018-03-01T07:07:34.620Z,100238.66
2018-03-01T07:10:02.609Z,100253.45
2018-03-01T07:12:30.498Z,100244.08
2018-03-01T07:14:58.551Z,100249.52
2018-03-01T07:17:26.098Z,100248.88
2018-03-01T07:19:54.366Z,100240.92
2018-03-01T07:22:22.338Z,100238.16
2018-03-01T07:24:49.891Z,100233.13
2018-03-01T07:27:17.993Z,100238.83
2018-03-01T07:29:45.563Z,100243.48
2018-03-01T07:32:13.536Z,100240.19
2018-03-01T07:34:42.422Z,100240.73
2018-03-01T07:37:09.986Z,100256.42
2018-03-01T07:39:38.456Z,100257.16
2018-03-01T07:42:06.052Z,100254.88
2018-03-01T07:44:33.619Z,100248.94
2018-03-01T07:47:02.245Z,100248.16
2018-03-01T07:49:30.882Z,100238.37
2018-03-01T07:51:59.570Z,100241.08
2018-03-01T07:54:27.807Z,100252.16
2018-03-01T07:56:55.409Z,100249.98
2018-03-01T07:59:23.424Z,100245.38
2018-03-01T08:01:51.307Z,100240.36
2018-03-01T08:04:18.961Z,100240.07
2018-03-01T08:06:46.543Z,100233.73
2018-03-01T08:09:14.141Z,100235.56
2018-03-01T08:11:41.696Z,100234.50
2018-03-01T08:14:09.817Z,100231.53
2018-03-01T08:16:37.664Z,100218.00
2018-03-01T08:19:05.327Z,100201.39
2018-03-01T08:21:33.390Z,100207.34
2018-03-01T08:24:01.875Z,100211.80
2018-03-01T08:26:29.881Z,100210.65
2018-03-01T08:28:58.530Z,100216.79
2018-03-01T08:31:26.100Z,100205.56
2018-03-01T08:33:54.387Z,100199.90
2018-03-01T08:36:22.760Z,100195.08
2018-03-01T08:38:50.332Z,100182.92
2018-03-01T08:41:17.945Z,100178.09
2018-03-01T08:43:45.547Z,100181.91
2018-03-01T08:46:13.516Z,100181.81
2018-03-01T08:48:41.596Z,100174.75
2018-03-01T08:51:11.246Z,100173.80
2018-03-01T08:53:38.824Z,100169.34
2018-03-01T08:56:06.691Z,100163.20
2018-03-01T08:58:34.674Z,100156.78
2018-03-01T09:01:02.711Z,100150.39
2018-03-01T09:03:30.320Z,100159.19
2018-03-01T09:05:58.270Z,100179.98
2018-03-01T09:08:26.073Z,100184.48
2018-03-01T09:10:53.872Z,100177.11
2018-03-01T09:13:21.436Z,100181.77
2018-03-01T09:15:49.099Z,100174.97
2018-03-01T09:18:16.708Z,100145.12
2018-03-01T09:20:44.650Z,100164.14
2018-03-01T09:23:14.236Z,100164.05
2018-03-01T09:25:41.997Z,100165.29
2018-03-01T09:28:09.948Z,100147.47
2018-03-01T09:30:38.387Z,100176.19
2018-03-01T09:33:05.998Z,100164.06
2018-03-01T09:35:33.567Z,100156.94
2018-03-01T09:38:02.546Z,100167.61
2018-03-01T09:40:30.944Z,100148.25
2018-03-01T09:42:58.525Z,100139.28
2018-03-01T09:45:26.257Z,100138.75
2018-03-01T09:47:53.815Z,100130.72
2018-03-01T09:50:21.896Z,100120.83
2018-03-01T09:52:49.511Z,100118.98
2018-03-01T09:55:18.027Z,100107.16
2018-03-01T09:57:46.087Z,100103.94
2018-03-01T10:00:15.031Z,100102.06
2018-03-01T10:02:42.690Z,100092.00
2018-03-01T10:05:10.372Z,100105.30
2018-03-01T10:07:40.249Z,100108.19
2018-03-01T10:10:08.454Z,100104.16
2018-03-01T10:12:36.598Z,100095.83
2018-03-01T10:15:04.375Z,100090.50
2018-03-01T10:17:32.337Z,100085.95
2018-03-01T10:19:59.898Z,100080.23
2018-03-01T10:22:27.998Z,100075.82
2018-03-01T10:24:56.215Z,100070.53
2018-03-01T10:27:26.869Z,100063.05
2018-03-01T10:29:54.636Z,100057.31
2018-03-01T10:32:22.747Z,100052.02
2018-03-01T10:34:50.470Z,100049.34
2018-03-01T10:37:20.115Z,100055.04
2018-03-01T10:39:48.269Z,100053.23
2018-03-01T10:42:17.446Z,100050.24
2018-03-01T10:44:45.289Z,100039.61
2018-03-01T10:47:12.946Z,100034.05
2018-03-01T10:49:40.887Z,100020.52
2018-03-01T10:52:09.100Z,100015.36
2018-03-01T10:54:37.176Z,100013.25
2018-03-01T10:57:05.878Z,100014.47
2018-03-01T10:59:35.146Z,100008.87
2018-03-01T11:02:02.805Z,100004.93
2018-03-01T11:04:32.546Z,100008.67
2018-03-01T11:07:00.444Z,100008.66
2018-03-01T11:09:28.362Z,100002.56
2018-03-01T11:11:55.971Z,99981.21
2018-03-01T11:14:24.462Z,99985.87
2018-03-01T11:16:52.894Z,99991.46
2018-03-01T11:19:22.173Z,99986.48
2018-03-01T11:21:50.730Z,99993.30
2018-03-01T11:24:19.278Z,99985.83
2018-03-01T11:26:50.384Z,99985.99
2018-03-01T11:29:18.037Z,99977.63
2018-03-01T11:31:45.793Z,99980.75
2018-03-01T11:34:14.627Z,99983.98
2018-03-01T11:36:43.326Z,99983.27
2018-03-01T11:39:10.969Z,99977.84
2018-03-01T11:41:39.133Z,99974.41
2018-03-01T11:44:06.904Z,99979.11
2018-03-01T11:46:35.567Z,99982.59
2018-03-01T11:49:03.542Z,99974.92
2018-03-01T11:51:31.510Z,99970.09
2018-03-01T11:53:59.844Z,99958.11
2018-03-01T11:56:30.037Z,99952.86
2018-03-01T11:58:57.864Z,99949.55
2018-03-01T12:01:26.576Z,99935.80
2018-03-01T12:03:55.505Z,99952.79
2018-03-01T12:06:23.827Z,99952.73
2018-03-01T12:08:51.397Z,99950.52
2018-03-01T12:11:19.378Z,99948.79
2018-03-01T12:13:47.433Z,99929.59
2018-03-01T12:16:15.029Z,99935.85
2018-03-01T12:18:43.279Z,99934.87
2018-03-01T12:21:11.794Z,99923.51
2018-03-01T12:23:39.722Z,99916.92
2018-03-01T12:26:07.342Z,99912.56
2018-03-01T12:28:36.076Z,99911.66
2018-03-01T12:31:03.685Z,99911.94
2018-03-01T12:33:31.241Z,99914.34
2018-03-01T12:35:58.923Z,99907.57
2018-03-01T12:38:27.217Z,99905.23
2018-03-01T12:40:54.817Z,99907.26
2018-03-01T12:43:22.749Z,99888.80
2018-03-01T12:45:50.456Z,99893.41
2018-03-01T12:48:18.107Z,99897.62
2018-03-01T12:50:45.997Z,99898.75
2018-03-01T12:53:14.053Z,99889.30
2018-03-01T12:55:41.641Z,99885.16
2018-03-01T12:58:09.327Z,99883.59
2018-03-01T13:00:37.227Z,99880.80
2018-03-01T13:03:04.861Z,99872.58
2018-03-01T13:05:32.497Z,99869.99
2018-03-01T13:08:00.340Z,99866.14
2018-03-01T13:10:33.986Z,99862.45
2018-03-01T13:13:02.420Z,99868.06
2018-03-01T13:15:29.998Z,99875.05
2018-03-01T13:17:59.029Z,99883.44
2018-03-01T13:20:26.858Z,99878.59
2018-03-01T13:22:55.272Z,99867.44
2018-03-01T13:25:23.651Z,99878.39
2018-03-01T13:27:52.705Z,99884.58
2018-03-01T13:30:20.301Z,99889.14
2018-03-01T13:35:53.222Z,99861.36
2018-03-01T13:38:21.774Z,99870.16
2018-03-01T13:40:49.952Z,99878.87
2018-03-01T13:43:22.382Z,99888.23
2018-03-01T13:45:49.957Z,99881.59
2018-03-01T13:48:17.735Z,99882.15
2018-03-01T13:50:45.299Z,99880.34
2018-03-01T13:53:12.978Z,99871.87
2018-03-01T13:55:40.572Z,99871.84
2018-03-01T13:58:08.212Z,99873.92
2018-03-01T14:00:35.840Z,99857.77
2018-03-01T14:03:03.463Z,99861.29
2018-03-01T14:05:31.080Z,99866.95
2018-03-01T14:07:58.696Z,99867.50
2018-03-01T14:10:26.311Z,99872.70
2018-03-01T14:16:02.224Z,99874.95
2018-03-01T14:21:36.909Z,99872.55
2018-03-01T14:27:19.440Z,99867.06
2018-03-01T14:29:47.008Z,99869.34
2018-03-01T14:32:14.580Z,99874.11
2018-03-01T14:34:42.181Z,99878.09
2018-03-01T14:37:10.689Z,99879.15
2018-03-01T14:39:38.803Z,99879.77
2018-03-01T14:42:06.404Z,99876.02
2018-03-01T14:44:34.907Z,99877.83
2018-03-01T14:47:02.453Z,99874.98
2018-03-01T14:49:30.036Z,99874.19
2018-03-01T14:51:57.592Z,99859.48
2018-03-01T14:54:25.204Z,99870.53
2018-03-01T14:56:52.804Z,99875.31
2018-03-01T14:59:20.357Z,99873.19
2018-03-01T15:01:47.947Z,99876.67
2018-03-01T15:04:15.478Z,99866.27
2018-03-01T15:06:43.076Z,99858.44
2018-03-01T15:09:10.625Z,99858.01
2018-03-01T15:11:38.220Z,99852.12
2018-03-01T15:14:05.764Z,99854.42
2018-03-01T15:16:33.365Z,99848.41
2018-03-01T15:19:00.974Z,99839.83
2018-03-01T15:21:28.608Z,99837.46
2018-03-01T15:23:56.195Z,99848.27
2018-03-01T15:26:23.764Z,99854.39
2018-03-01T15:28:51.630Z,99857.05
2018-03-01T15:31:20.118Z,99850.13
2018-03-01T15:33:49.455Z,99839.73
2018-03-01T15:36:17.000Z,99831.09
2018-03-01T15:38:44.589Z,99823.30
2018-03-01T15:41:12.951Z,99821.97
2018-03-01T15:43:40.535Z,99823.69
2018-03-01T15:46:08.068Z,99822.41
2018-03-01T15:48:36.604Z,99821.92
2018-03-01T15:51:04.146Z,99830.12
2018-03-01T15:53:31.749Z,99830.25
2018-03-01T15:55:59.293Z,99826.37
2018-03-01T15:58:26.846Z,99834.16
2018-03-01T16:00:54.881Z,99835.41
2018-03-01T16:03:22.529Z,99837.16
2018-03-01T16:05:50.964Z,99845.83
2018-03-01T16:08:18.676Z,99847.94
2018-03-01T16:10:46.874Z,99853.14
2018-03-01T16:13:14.598Z,99857.89
2018-03-01T16:15:42.304Z,99851.42
2018-03-01T16:18:15.207Z,99858.34
2018-03-01T16:20:43.117Z,99866.50
2018-03-01T16:23:10.665Z,99869.02
2018-03-01T16:25:39.476Z,99866.92
2018-03-01T16:28:07.063Z,99865.02
2018-03-01T16:30:34.652Z,99852.62
2018-03-01T16:33:02.208Z,99851.07
2018-03-01T16:35:29.811Z,99850.97
2018-03-01T16:37:57.350Z,99860.78
2018-03-01T16:40:24.929Z,99846.94
2018-03-01T16:42:52.690Z,99838.63
2018-03-01T16:45:20.688Z,99837.43
2018-03-01T16:47:48.279Z,99842.19
2018-03-01T16:50:15.817Z,99855.22
2018-03-01T16:52:43.359Z,99861.17
2018-03-01T16:55:11.756Z,99860.59
2018-03-01T16:57:40.142Z,99862.86
2018-03-01T17:00:09.332Z,99855.61
2018-03-01T17:02:37.091Z,99862.27
2018-03-01T17:05:06.117Z,99856.44
2018-03-01T17:07:34.075Z,99853.98
2018-03-01T17:10:03.107Z,99850.95
2018-03-01T17:12:31.054Z,99848.53
2018-03-01T17:14:58.643Z,99847.46
2018-03-01T17:17:26.777Z,99845.44
2018-03-01T17:19:55.082Z,99849.91
2018-03-01T17:22:22.676Z,99849.98
2018-03-01T17:24:50.492Z,99841.99
2018-03-01T17:27:18.047Z,99823.10
2018-03-01T17:29:45.584Z,99815.98
2018-03-01T17:32:13.185Z,99810.78
2018-03-01T17:34:41.746Z,99806.58
2018-03-01T17:37:09.683Z,99812.05
2018-03-01T17:39:38.248Z,99802.25
2018-03-01T17:42:06.882Z,99805.66
2018-03-01T17:44:34.432Z,99795.07
2018-03-01T17:47:02.105Z,99789.72
2018-03-01T17:49:29.702Z,99792.68
2018-03-01T17:51:57.385Z,99786.23
2018-03-01T17:54:25.831Z,99780.84
2018-03-01T17:56:54.256Z,99783.18
2018-03-01T17:59:22.120Z,99796.98
2018-03-01T18:01:50.022Z,99800.75
2018-03-01T18:04:17.751Z,99799.89
2018-03-01T18:06:45.308Z,99790.27
2018-03-01T18:09:14.508Z,99787.28
2018-03-01T18:11:42.055Z,99791.70
2018-03-01T18:14:09.643Z,99798.65
2018-03-01T18:16:37.193Z,99792.09
2018-03-01T18:19:04.942Z,99785.45
2018-03-01T18:21:32.490Z,99782.35
2018-03-01T18:24:00.089Z,99780.80
2018-03-01T18:26:27.650Z,99777.42
2018-03-01T18:28:56.029Z,99766.88
2018-03-01T18:31:23.627Z,99757.86
2018-03-01T18:33:51.173Z,99748.16
2018-03-01T18:36:19.106Z,99751.58
2018-03-01T18:38:47.065Z,99748.33
2018-03-01T18:41:14.615Z,99745.95
2018-03-01T18:43:42.203Z,99734.23
2018-03-01T18:46:09.790Z,99726.34
2018-03-01T18:48:40.167Z,99716.89
2018-03-01T18:51:07.774Z,99717.41
2018-03-01T18:53:35.581Z,99718.40
2018-03-01T18:56:03.154Z,99715.06
2018-03-01T18:58:30.756Z,99719.20
2018-03-01T19:00:58.310Z,99732.09
2018-03-01T19:03:26.484Z,99736.53
2018-03-01T19:05:55.790Z,99725.41
2018-03-01T19:08:23.333Z,99717.53
2018-03-01T19:10:51.694Z,99715.12
2018-03-01T19:13:19.815Z,99708.00
2018-03-01T19:15:47.355Z,99720.84
2018-03-01T19:18:14.894Z,99734.03
2018-03-01T19:20:42.723Z,99720.41
2018-03-01T19:23:11.084Z,99722.64
2018-03-01T19:25:38.683Z,99746.41
2018-03-01T19:28:06.553Z,99754.83
2018-03-01T19:30:34.533Z,99764.24
2018-03-01T19:33:02.141Z,99753.94
2018-03-01T19:35:30.580Z,99750.67
2018-03-01T19:37:58.244Z,99756.93
2018-03-01T19:40:25.856Z,99747.34
2018-03-01T19:42:53.479Z,99746.70
2018-03-01T19:45:21.047Z,99738.42
2018-03-01T19:47:48.646Z,99730.22
2018-03-01T19:50:19.284Z,99725.81
2018-03-01T19:52:48.070Z,99725.75
2018-03-01T19:55:15.660Z,99708.69
2018-03-01T19:57:43.200Z,99707.05
2018-03-01T20:00:10.805Z,99697.69
2018-03-01T20:02:38.365Z,99709.34
2018-03-01T20:05:06.323Z,99708.55
2018-03-01T20:07:34.160Z,99703.25
2018-03-01T20:10:01.711Z,99728.19
2018-03-01T20:12:30.267Z,99731.34
2018-03-01T20:14:57.830Z,99728.38
2018-03-01T20:17:26.260Z,99721.33
2018-03-01T20:19:54.603Z,99708.92
2018-03-01T20:22:22.623Z,99706.98
2018-03-01T20:24:50.221Z,99699.62
2018-03-01T20:27:18.124Z,99698.86
2018-03-01T20:29:46.101Z,99696.52
2018-03-01T20:32:13.690Z,99696.19
2018-03-01T20:34:41.248Z,99688.20
2018-03-01T20:37:08.835Z,99683.81
2018-03-01T20:39:36.375Z,99678.39
2018-03-01T20:42:05.705Z,99688.30
2018-03-01T20:44:33.490Z,99679.98
2018-03-01T20:47:01.100Z,99673.34
2018-03-01T20:49:28.656Z,99668.06
2018-03-01T20:51:56.208Z,99665.33
2018-03-01T20:54:23.805Z,99652.42
2018-03-01T20:56:51.355Z,99661.96
2018-03-01T20:59:18.953Z,99665.72
2018-03-01T21:01:46.896Z,99666.31
2018-03-01T21:04:14.459Z,99655.70
2018-03-01T21:06:42.044Z,99652.86
2018-03-01T21:09:09.600Z,99650.56
2018-03-01T21:11:37.565Z,99644.91
2018-03-01T21:14:05.151Z,99634.72
2018-03-01T21:16:32.772Z,99633.22
2018-03-01T21:19:00.652Z,99640.55
2018-03-01T21:21:28.292Z,99628.73
2018-03-01T21:23:55.952Z,99596.87
2018-03-01T21:26:23.504Z,99607.83
2018-03-01T21:28:51.122Z,99609.35
2018-03-01T21:31:19.347Z,99606.03
2018-03-01T21:33:46.946Z,99606.16
2018-03-01T21:36:14.686Z,99609.16
2018-03-01T21:38:42.300Z,99620.18
2018-03-01T21:41:10.735Z,99629.44
2018-03-01T21:43:38.332Z,99634.98
2018-03-01T21:46:05.880Z,99627.65
2018-03-01T21:48:33.553Z,99628.07
2018-03-01T21:51:01.144Z,99624.30
2018-03-01T21:53:28.794Z,99629.71
2018-03-01T21:55:56.343Z,99608.09
2018-03-01T21:58:23.991Z,99599.72
2018-03-01T22:00:51.644Z,99599.81
2018-03-01T22:03:20.029Z,99593.47
2018-03-01T22:05:48.425Z,99585.50
2018-03-01T22:08:16.486Z,99581.86
2018-03-01T22:10:44.545Z,99569.48
2018-03-01T22:13:12.227Z,99561.65
2018-03-01T22:15:40.416Z,99564.67
2018-03-01T22:18:08.345Z,99554.13
2018-03-01T22:20:36.999Z,99546.25
2018-03-01T22:23:04.595Z,99546.41
2018-03-01T22:25:32.181Z,99546.97
2018-03-01T22:27:59.743Z,99549.19
2018-03-01T22:30:28.370Z,99536.48
2018-03-01T22:32:58.010Z,99538.16
2018-03-01T22:35:25.851Z,99537.66
2018-03-01T22:37:53.502Z,99537.23
2018-03-01T22:40:21.605Z,99537.84
2018-03-01T22:42:49.195Z,99536.24
2018-03-01T22:45:16.780Z,99532.59
2018-03-01T22:47:44.451Z,99524.16
2018-03-01T22:50:12.003Z,99514.91
2018-03-01T22:52:39.596Z,99516.36
2018-03-01T22:55:07.188Z,99515.19
2018-03-01T22:57:34.767Z,99525.97
2018-03-01T23:00:02.351Z,99524.72
2018-03-01T23:02:29.951Z,99523.46
2018-03-01T23:04:57.543Z,99512.30
2018-03-01T23:07:25.082Z,99513.56
2018-03-01T23:09:52.623Z,99510.17
2018-03-01T23:12:20.202Z,99504.48
2018-03-01T23:14:48.721Z,99503.21
2018-03-01T23:17:16.329Z,99517.53
2018-03-01T23:19:43.900Z,99519.16
2018-03-01T23:22:11.447Z,99517.61
2018-03-01T23:24:39.297Z,99512.97
2018-03-01T23:27:06.869Z,99515.91
2018-03-01T23:29:34.424Z,99515.70
2018-03-01T23:32:02.016Z,99519.73
2018-03-01T23:34:29.620Z,99518.30
2018-03-01T23:36:57.216Z,99526.94
2018-03-01T23:39:24.816Z,99522.75
2018-03-01T23:41:52.410Z,99510.49
2018-03-01T23:44:19.954Z,99506.27
2018-03-01T23:46:47.983Z,99502.48
2018-03-01T23:49:15.528Z,99501.03
2018-03-01T23:51:43.077Z,99503.31
2018-03-01T23:54:10.964Z,99489.22
2018-03-01T23:56:38.509Z,99492.63
2018-03-01T23:59:06.098Z,99487.26
